This is the latest recevied weather packets stored in our database for station/object OM3WYM-13. If no packets are shown the sender has not sent any weather packets the latest 10 day(s).
| Time | Temp. | Humidity | Pressure | Rain* | Wind** | Luminosity | Snow |
|---|---|---|---|---|---|---|---|
| 1777605607 | -1.67° C | 76% | 1029.1 hPa | - | - | - | - |
| 1777605007 | -1.67° C | 76% | 1029.2 hPa | - | - | - | - |
| 1777604407 | -1.67° C | 77% | 1029.2 hPa | - | - | - | - |
| 1777603807 | -1.67° C | 77% | 1029.2 hPa | - | - | - | - |
| 1777603207 | -1.67° C | 77% | 1029.2 hPa | - | - | - | - |
| 1777602607 | -2.22° C | 78% | 1029.3 hPa | - | - | - | - |
| 1777602007 | -2.22° C | 78% | 1029.3 hPa | - | - | - | - |
| 1777600808 | -2.22° C | 78% | 1029.3 hPa | - | - | - | - |
| 1777600208 | -2.22° C | 78% | 1029.3 hPa | - | - | - | - |
| 1777586408 | 0° C | 66% | 1028.5 hPa | - | - | - | - |
| 1777585808 | 0.56° C | 65% | 1028.4 hPa | - | - | - | - |
| 1777582808 | 1.11° C | 61% | 1028.2 hPa | - | - | - | - |
| 1777580407 | 2.22° C | 57% | 1028.1 hPa | - | - | - | - |
| 1777579208 | 2.78° C | 55% | 1028.1 hPa | - | - | - | - |
| 1777577407 | 3.89° C | 51% | 1027.7 hPa | - | - | - | - |
| 1777576808 | 4.44° C | 49% | 1027.6 hPa | - | - | - | - |
| 1777575608 | 5.56° C | 45% | 1027.4 hPa | - | - | - | - |
| 1777573208 | 7.78° C | 36% | 1026.8 hPa | - | - | - | - |
| 1777572008 | 8.89° C | 33% | 1026.5 hPa | - | - | - | - |
| 1777571408 | 9.44° C | 32% | 1026.4 hPa | - | - | - | - |
| 1777569608 | 10.56° C | 30% | 1025.9 hPa | - | - | - | - |
| 1777569008 | 11.11° C | 28% | 1025.8 hPa | - | - | - | - |
| 1777567208 | 14.44° C | 24% | 1025.3 hPa | - | - | - | - |
| 1777564808 | 15° C | 23% | 1025.3 hPa | - | - | - | - |
| 1777564208 | 15.56° C | 22% | 1025.2 hPa | - | - | - | - |
* Rain since midnight (hover to see other rain measurements)
** Current wind speed in m/s (hover to see current wind gust speed)